sensor_id;sensor_type;location;lat;lon;timestamp;temperature;humidity
38333;DHT22;25748;46.670;14.272;2022-10-17T00:01:32;8.70;77.60
38333;DHT22;25748;46.670;14.272;2022-10-17T00:03:58;8.70;77.40
38333;DHT22;25748;46.670;14.272;2022-10-17T00:06:24;8.70;77.70
38333;DHT22;25748;46.670;14.272;2022-10-17T00:08:49;8.70;77.90
38333;DHT22;25748;46.670;14.272;2022-10-17T00:11:18;8.70;78.00
38333;DHT22;25748;46.670;14.272;2022-10-17T00:13:45;8.60;77.90
38333;DHT22;25748;46.670;14.272;2022-10-17T00:16:12;8.60;78.20
38333;DHT22;25748;46.670;14.272;2022-10-17T00:18:38;8.60;78.40
38333;DHT22;25748;46.670;14.272;2022-10-17T00:21:03;8.60;78.60
38333;DHT22;25748;46.670;14.272;2022-10-17T00:23:29;8.60;78.90
38333;DHT22;25748;46.670;14.272;2022-10-17T00:26:03;8.70;79.80
38333;DHT22;25748;46.670;14.272;2022-10-17T00:28:30;8.60;79.70
38333;DHT22;25748;46.670;14.272;2022-10-17T00:30:57;8.70;80.10
38333;DHT22;25748;46.670;14.272;2022-10-17T00:33:22;8.60;80.20
38333;DHT22;25748;46.670;14.272;2022-10-17T00:35:48;8.70;80.40
38333;DHT22;25748;46.670;14.272;2022-10-17T00:38:14;8.60;80.40
38333;DHT22;25748;46.670;14.272;2022-10-17T00:40:39;8.60;80.00
38333;DHT22;25748;46.670;14.272;2022-10-17T00:43:16;8.60;79.70
38333;DHT22;25748;46.670;14.272;2022-10-17T00:45:42;8.60;79.40
38333;DHT22;25748;46.670;14.272;2022-10-17T00:48:09;8.60;79.00
38333;DHT22;25748;46.670;14.272;2022-10-17T00:50:38;8.50;79.00
38333;DHT22;25748;46.670;14.272;2022-10-17T00:53:05;8.50;79.00
38333;DHT22;25748;46.670;14.272;2022-10-17T00:55:36;8.50;79.00
38333;DHT22;25748;46.670;14.272;2022-10-17T00:58:04;8.50;78.70
38333;DHT22;25748;46.670;14.272;2022-10-17T01:00:31;8.50;78.80
38333;DHT22;25748;46.670;14.272;2022-10-17T01:02:57;8.40;78.60
38333;DHT22;25748;46.670;14.272;2022-10-17T01:05:22;8.40;78.60
38333;DHT22;25748;46.670;14.272;2022-10-17T01:07:49;8.40;78.90
38333;DHT22;25748;46.670;14.272;2022-10-17T01:10:17;8.40;79.20
38333;DHT22;25748;46.670;14.272;2022-10-17T01:26:35;8.20;78.20
38333;DHT22;25748;46.670;14.272;2022-10-17T01:31:44;8.20;78.50
38333;DHT22;25748;46.670;14.272;2022-10-17T01:34:18;8.20;78.70
38333;DHT22;25748;46.670;14.272;2022-10-17T01:39:20;8.10;79.20
38333;DHT22;25748;46.670;14.272;2022-10-17T01:41:55;8.10;79.40
38333;DHT22;25748;46.670;14.272;2022-10-17T01:44:28;8.10;79.20
38333;DHT22;25748;46.670;14.272;2022-10-17T01:47:11;8.00;79.00
38333;DHT22;25748;46.670;14.272;2022-10-17T01:49:39;8.00;78.90
38333;DHT22;25748;46.670;14.272;2022-10-17T01:52:09;8.00;78.90
38333;DHT22;25748;46.670;14.272;2022-10-17T01:54:50;7.90;78.80
38333;DHT22;25748;46.670;14.272;2022-10-17T01:57:39;7.90;78.80
38333;DHT22;25748;46.670;14.272;2022-10-17T02:00:09;7.90;78.60
38333;DHT22;25748;46.670;14.272;2022-10-17T02:02:36;7.90;79.20
38333;DHT22;25748;46.670;14.272;2022-10-17T02:05:03;7.80;79.20
38333;DHT22;25748;46.670;14.272;2022-10-17T02:07:29;7.80;79.30
38333;DHT22;25748;46.670;14.272;2022-10-17T02:09:54;7.80;79.60
38333;DHT22;25748;46.670;14.272;2022-10-17T02:18:05;7.90;81.20
38333;DHT22;25748;46.670;14.272;2022-10-17T02:20:56;7.90;81.80
38333;DHT22;25748;46.670;14.272;2022-10-17T02:23:41;8.00;82.20
38333;DHT22;25748;46.670;14.272;2022-10-17T02:26:29;8.00;82.30
38333;DHT22;25748;46.670;14.272;2022-10-17T02:31:53;8.10;82.60
38333;DHT22;25748;46.670;14.272;2022-10-17T02:34:26;8.10;82.90
38333;DHT22;25748;46.670;14.272;2022-10-17T02:36:58;8.10;83.20
38333;DHT22;25748;46.670;14.272;2022-10-17T02:39:27;8.20;83.50
38333;DHT22;25748;46.670;14.272;2022-10-17T02:41:55;8.20;83.60
38333;DHT22;25748;46.670;14.272;2022-10-17T02:44:22;8.30;83.80
38333;DHT22;25748;46.670;14.272;2022-10-17T02:47:00;8.30;83.90
38333;DHT22;25748;46.670;14.272;2022-10-17T02:49:32;8.30;84.20
38333;DHT22;25748;46.670;14.272;2022-10-17T02:54:40;8.40;84.50
38333;DHT22;25748;46.670;14.272;2022-10-17T02:57:11;8.40;84.60
38333;DHT22;25748;46.670;14.272;2022-10-17T02:59:39;8.40;84.70
38333;DHT22;25748;46.670;14.272;2022-10-17T03:02:06;8.50;85.00
38333;DHT22;25748;46.670;14.272;2022-10-17T03:04:32;8.50;85.20
38333;DHT22;25748;46.670;14.272;2022-10-17T03:06:58;8.50;85.30
38333;DHT22;25748;46.670;14.272;2022-10-17T03:09:24;8.60;85.40
38333;DHT22;25748;46.670;14.272;2022-10-17T03:11:53;8.60;85.50
38333;DHT22;25748;46.670;14.272;2022-10-17T03:14:19;8.60;85.40
38333;DHT22;25748;46.670;14.272;2022-10-17T03:16:44;8.60;85.20
38333;DHT22;25748;46.670;14.272;2022-10-17T03:19:10;8.60;85.10
38333;DHT22;25748;46.670;14.272;2022-10-17T03:21:36;8.60;85.10
38333;DHT22;25748;46.670;14.272;2022-10-17T03:24:03;8.70;85.30
38333;DHT22;25748;46.670;14.272;2022-10-17T03:26:29;8.60;85.30
38333;DHT22;25748;46.670;14.272;2022-10-17T03:28:54;8.70;85.40
38333;DHT22;25748;46.670;14.272;2022-10-17T03:31:21;8.70;85.50
38333;DHT22;25748;46.670;14.272;2022-10-17T03:33:47;8.70;85.40
38333;DHT22;25748;46.670;14.272;2022-10-17T03:36:15;8.80;85.40
38333;DHT22;25748;46.670;14.272;2022-10-17T03:38:41;8.80;85.40
38333;DHT22;25748;46.670;14.272;2022-10-17T03:41:07;8.80;85.30
38333;DHT22;25748;46.670;14.272;2022-10-17T03:43:33;8.80;85.10
38333;DHT22;25748;46.670;14.272;2022-10-17T03:46:00;8.80;85.20
38333;DHT22;25748;46.670;14.272;2022-10-17T03:48:28;8.80;85.30
38333;DHT22;25748;46.670;14.272;2022-10-17T03:51:05;8.80;85.30
38333;DHT22;25748;46.670;14.272;2022-10-17T03:53:31;8.80;85.40
38333;DHT22;25748;46.670;14.272;2022-10-17T03:56:18;8.80;85.60
38333;DHT22;25748;46.670;14.272;2022-10-17T03:58:44;8.90;85.70
38333;DHT22;25748;46.670;14.272;2022-10-17T04:01:11;8.90;85.70
38333;DHT22;25748;46.670;14.272;2022-10-17T04:03:37;8.90;85.60
38333;DHT22;25748;46.670;14.272;2022-10-17T04:06:04;8.90;85.60
38333;DHT22;25748;46.670;14.272;2022-10-17T04:08:30;8.90;85.70
38333;DHT22;25748;46.670;14.272;2022-10-17T04:11:04;8.90;85.50
38333;DHT22;25748;46.670;14.272;2022-10-17T04:13:30;8.90;85.90
38333;DHT22;25748;46.670;14.272;2022-10-17T04:16:02;8.90;86.10
38333;DHT22;25748;46.670;14.272;2022-10-17T04:18:27;8.90;86.30
38333;DHT22;25748;46.670;14.272;2022-10-17T04:20:53;8.90;86.40
38333;DHT22;25748;46.670;14.272;2022-10-17T04:23:19;8.90;86.50
38333;DHT22;25748;46.670;14.272;2022-10-17T04:25:45;8.90;86.60
38333;DHT22;25748;46.670;14.272;2022-10-17T04:28:12;8.90;86.80
38333;DHT22;25748;46.670;14.272;2022-10-17T04:30:39;8.90;87.00
38333;DHT22;25748;46.670;14.272;2022-10-17T04:33:05;8.90;87.20
38333;DHT22;25748;46.670;14.272;2022-10-17T04:35:30;8.90;87.30
38333;DHT22;25748;46.670;14.272;2022-10-17T04:37:56;8.90;87.30
38333;DHT22;25748;46.670;14.272;2022-10-17T04:40:22;8.90;87.70
38333;DHT22;25748;46.670;14.272;2022-10-17T04:42:47;8.90;87.50
38333;DHT22;25748;46.670;14.272;2022-10-17T04:45:13;8.90;87.70
38333;DHT22;25748;46.670;14.272;2022-10-17T04:47:39;8.80;87.90
38333;DHT22;25748;46.670;14.272;2022-10-17T04:50:05;8.90;88.20
38333;DHT22;25748;46.670;14.272;2022-10-17T04:52:30;8.90;88.50
38333;DHT22;25748;46.670;14.272;2022-10-17T04:54:56;8.90;88.60
38333;DHT22;25748;46.670;14.272;2022-10-17T04:57:22;9.00;88.70
38333;DHT22;25748;46.670;14.272;2022-10-17T04:59:49;9.00;88.80
38333;DHT22;25748;46.670;14.272;2022-10-17T05:02:15;9.00;88.80
38333;DHT22;25748;46.670;14.272;2022-10-17T05:04:41;9.10;88.90
38333;DHT22;25748;46.670;14.272;2022-10-17T05:07:06;9.10;88.80
38333;DHT22;25748;46.670;14.272;2022-10-17T05:09:32;9.10;88.70
38333;DHT22;25748;46.670;14.272;2022-10-17T05:11:58;9.10;88.70
38333;DHT22;25748;46.670;14.272;2022-10-17T05:14:24;9.10;88.60
38333;DHT22;25748;46.670;14.272;2022-10-17T05:16:50;9.10;88.50
38333;DHT22;25748;46.670;14.272;2022-10-17T05:19:15;9.10;87.90
38333;DHT22;25748;46.670;14.272;2022-10-17T05:21:42;9.10;88.10
38333;DHT22;25748;46.670;14.272;2022-10-17T05:24:10;9.10;88.20
38333;DHT22;25748;46.670;14.272;2022-10-17T05:26:36;9.10;88.20
38333;DHT22;25748;46.670;14.272;2022-10-17T05:29:02;9.10;87.90
38333;DHT22;25748;46.670;14.272;2022-10-17T05:31:29;9.00;87.20
38333;DHT22;25748;46.670;14.272;2022-10-17T05:33:58;9.00;87.10
38333;DHT22;25748;46.670;14.272;2022-10-17T05:36:24;9.00;87.30
38333;DHT22;25748;46.670;14.272;2022-10-17T05:38:51;9.00;86.80
38333;DHT22;25748;46.670;14.272;2022-10-17T05:41:17;9.00;87.20
38333;DHT22;25748;46.670;14.272;2022-10-17T05:43:43;9.00;87.20
38333;DHT22;25748;46.670;14.272;2022-10-17T05:46:09;9.00;87.30
38333;DHT22;25748;46.670;14.272;2022-10-17T05:48:36;9.00;87.20
38333;DHT22;25748;46.670;14.272;2022-10-17T05:51:04;9.00;87.40
38333;DHT22;25748;46.670;14.272;2022-10-17T05:53:32;9.00;87.50
38333;DHT22;25748;46.670;14.272;2022-10-17T05:56:00;9.00;87.60
38333;DHT22;25748;46.670;14.272;2022-10-17T05:58:27;9.10;87.90
38333;DHT22;25748;46.670;14.272;2022-10-17T06:01:00;9.10;88.00
38333;DHT22;25748;46.670;14.272;2022-10-17T06:03:26;9.10;88.60
38333;DHT22;25748;46.670;14.272;2022-10-17T06:05:52;9.10;88.50
38333;DHT22;25748;46.670;14.272;2022-10-17T06:08:18;9.20;88.70
38333;DHT22;25748;46.670;14.272;2022-10-17T06:10:50;9.20;88.90
38333;DHT22;25748;46.670;14.272;2022-10-17T06:13:16;9.20;89.10
38333;DHT22;25748;46.670;14.272;2022-10-17T06:15:42;9.20;89.10
38333;DHT22;25748;46.670;14.272;2022-10-17T06:18:09;9.30;89.30
38333;DHT22;25748;46.670;14.272;2022-10-17T06:20:35;9.30;89.30
38333;DHT22;25748;46.670;14.272;2022-10-17T06:23:00;9.40;89.30
38333;DHT22;25748;46.670;14.272;2022-10-17T06:25:26;9.40;89.40
38333;DHT22;25748;46.670;14.272;2022-10-17T06:27:52;9.40;89.60
38333;DHT22;25748;46.670;14.272;2022-10-17T06:30:18;9.40;89.70
38333;DHT22;25748;46.670;14.272;2022-10-17T06:32:44;9.50;89.80
38333;DHT22;25748;46.670;14.272;2022-10-17T06:35:09;9.50;90.00
38333;DHT22;25748;46.670;14.272;2022-10-17T06:37:35;9.50;89.50
38333;DHT22;25748;46.670;14.272;2022-10-17T06:40:03;9.50;89.40
38333;DHT22;25748;46.670;14.272;2022-10-17T06:42:29;9.50;89.70
38333;DHT22;25748;46.670;14.272;2022-10-17T06:44:55;9.50;89.70
38333;DHT22;25748;46.670;14.272;2022-10-17T06:47:21;9.50;89.60
38333;DHT22;25748;46.670;14.272;2022-10-17T06:49:46;9.50;89.90
38333;DHT22;25748;46.670;14.272;2022-10-17T06:52:12;9.60;90.00
38333;DHT22;25748;46.670;14.272;2022-10-17T06:54:39;9.60;90.10
38333;DHT22;25748;46.670;14.272;2022-10-17T06:57:04;9.60;90.10
38333;DHT22;25748;46.670;14.272;2022-10-17T06:59:30;9.70;90.10
38333;DHT22;25748;46.670;14.272;2022-10-17T07:01:56;9.70;90.10
38333;DHT22;25748;46.670;14.272;2022-10-17T07:04:21;9.70;90.10
38333;DHT22;25748;46.670;14.272;2022-10-17T07:06:47;9.80;90.10
38333;DHT22;25748;46.670;14.272;2022-10-17T07:09:13;9.80;90.20
38333;DHT22;25748;46.670;14.272;2022-10-17T07:11:38;9.80;90.00
38333;DHT22;25748;46.670;14.272;2022-10-17T07:14:04;9.90;90.20
38333;DHT22;25748;46.670;14.272;2022-10-17T07:16:30;9.90;90.30
38333;DHT22;25748;46.670;14.272;2022-10-17T07:18:56;10.00;90.30
38333;DHT22;25748;46.670;14.272;2022-10-17T07:21:21;10.00;90.30
38333;DHT22;25748;46.670;14.272;2022-10-17T07:23:47;10.10;90.40
38333;DHT22;25748;46.670;14.272;2022-10-17T07:26:14;10.10;90.30
38333;DHT22;25748;46.670;14.272;2022-10-17T07:28:42;10.10;90.50
38333;DHT22;25748;46.670;14.272;2022-10-17T07:31:11;10.30;90.60
38333;DHT22;25748;46.670;14.272;2022-10-17T07:33:37;10.30;90.60
38333;DHT22;25748;46.670;14.272;2022-10-17T07:36:04;10.30;90.60
38333;DHT22;25748;46.670;14.272;2022-10-17T07:38:30;10.40;90.70
38333;DHT22;25748;46.670;14.272;2022-10-17T07:40:58;10.50;90.80
38333;DHT22;25748;46.670;14.272;2022-10-17T07:43:25;10.60;90.80
38333;DHT22;25748;46.670;14.272;2022-10-17T07:45:52;10.70;90.70
38333;DHT22;25748;46.670;14.272;2022-10-17T07:48:18;10.80;90.70
38333;DHT22;25748;46.670;14.272;2022-10-17T07:50:44;10.90;90.60
38333;DHT22;25748;46.670;14.272;2022-10-17T07:53:10;11.00;90.70
38333;DHT22;25748;46.670;14.272;2022-10-17T07:55:37;11.10;90.50
38333;DHT22;25748;46.670;14.272;2022-10-17T07:58:03;11.20;90.10
38333;DHT22;25748;46.670;14.272;2022-10-17T08:00:29;11.30;90.00
38333;DHT22;25748;46.670;14.272;2022-10-17T08:02:54;11.40;89.90
38333;DHT22;25748;46.670;14.272;2022-10-17T08:05:20;11.50;89.80
38333;DHT22;25748;46.670;14.272;2022-10-17T08:07:46;11.60;88.30
38333;DHT22;25748;46.670;14.272;2022-10-17T08:10:13;11.70;88.40
38333;DHT22;25748;46.670;14.272;2022-10-17T08:12:39;11.70;86.90
38333;DHT22;25748;46.670;14.272;2022-10-17T08:15:07;11.80;86.60
38333;DHT22;25748;46.670;14.272;2022-10-17T08:17:37;11.80;86.40
38333;DHT22;25748;46.670;14.272;2022-10-17T08:20:04;11.90;85.50
38333;DHT22;25748;46.670;14.272;2022-10-17T08:22:31;11.90;84.40
38333;DHT22;25748;46.670;14.272;2022-10-17T08:24:56;12.00;84.30
38333;DHT22;25748;46.670;14.272;2022-10-17T08:27:22;12.00;84.20
38333;DHT22;25748;46.670;14.272;2022-10-17T08:29:50;12.10;84.00
38333;DHT22;25748;46.670;14.272;2022-10-17T08:32:25;12.20;83.70
38333;DHT22;25748;46.670;14.272;2022-10-17T08:34:52;12.20;82.90
38333;DHT22;25748;46.670;14.272;2022-10-17T08:37:18;12.20;82.00
38333;DHT22;25748;46.670;14.272;2022-10-17T08:39:44;12.20;82.20
38333;DHT22;25748;46.670;14.272;2022-10-17T08:45:20;12.40;82.60
38333;DHT22;25748;46.670;14.272;2022-10-17T08:47:52;12.50;82.50
38333;DHT22;25748;46.670;14.272;2022-10-17T08:57:59;12.80;81.20
38333;DHT22;25748;46.670;14.272;2022-10-17T09:00:25;12.80;81.00
38333;DHT22;25748;46.670;14.272;2022-10-17T09:06:26;13.00;80.10
38333;DHT22;25748;46.670;14.272;2022-10-17T09:09:00;13.00;79.40
38333;DHT22;25748;46.670;14.272;2022-10-17T09:14:19;13.10;79.20
38333;DHT22;25748;46.670;14.272;2022-10-17T09:17:05;13.10;79.40
38333;DHT22;25748;46.670;14.272;2022-10-17T09:19:42;13.20;79.00
38333;DHT22;25748;46.670;14.272;2022-10-17T09:22:21;13.20;78.20
38333;DHT22;25748;46.670;14.272;2022-10-17T09:24:57;13.20;78.70
38333;DHT22;25748;46.670;14.272;2022-10-17T09:27:25;13.40;78.30
38333;DHT22;25748;46.670;14.272;2022-10-17T09:33:25;13.50;77.60
38333;DHT22;25748;46.670;14.272;2022-10-17T09:35:53;13.60;77.70
38333;DHT22;25748;46.670;14.272;2022-10-17T09:38:24;13.70;77.40
38333;DHT22;25748;46.670;14.272;2022-10-17T09:40:56;13.80;76.70
38333;DHT22;25748;46.670;14.272;2022-10-17T09:43:22;13.70;75.10
38333;DHT22;25748;46.670;14.272;2022-10-17T09:46:35;13.80;75.50
38333;DHT22;25748;46.670;14.272;2022-10-17T09:49:13;13.90;75.50
38333;DHT22;25748;46.670;14.272;2022-10-17T09:51:40;14.00;75.00
38333;DHT22;25748;46.670;14.272;2022-10-17T09:54:24;14.00;75.60
38333;DHT22;25748;46.670;14.272;2022-10-17T09:57:07;14.20;76.10
38333;DHT22;25748;46.670;14.272;2022-10-17T09:59:45;14.40;75.30
38333;DHT22;25748;46.670;14.272;2022-10-17T10:07:19;15.20;72.70
38333;DHT22;25748;46.670;14.272;2022-10-17T10:09:47;15.40;71.90
38333;DHT22;25748;46.670;14.272;2022-10-17T10:12:32;15.70;71.00
38333;DHT22;25748;46.670;14.272;2022-10-17T10:14:58;15.80;69.30
38333;DHT22;25748;46.670;14.272;2022-10-17T10:17:33;16.10;69.30
38333;DHT22;25748;46.670;14.272;2022-10-17T10:20:00;16.30;68.00
38333;DHT22;25748;46.670;14.272;2022-10-17T10:22:26;16.40;67.20
38333;DHT22;25748;46.670;14.272;2022-10-17T10:25:27;16.50;66.50
38333;DHT22;25748;46.670;14.272;2022-10-17T10:27:53;16.80;66.60
38333;DHT22;25748;46.670;14.272;2022-10-17T10:30:23;17.10;66.20
38333;DHT22;25748;46.670;14.272;2022-10-17T10:32:49;17.30;64.40
38333;DHT22;25748;46.670;14.272;2022-10-17T10:37:48;17.70;63.20
38333;DHT22;25748;46.670;14.272;2022-10-17T10:42:46;18.20;62.30
38333;DHT22;25748;46.670;14.272;2022-10-17T10:45:28;18.50;60.70
38333;DHT22;25748;46.670;14.272;2022-10-17T10:48:02;18.40;60.10
38333;DHT22;25748;46.670;14.272;2022-10-17T10:50:42;18.70;59.80
38333;DHT22;25748;46.670;14.272;2022-10-17T10:55:57;19.10;58.50
38333;DHT22;25748;46.670;14.272;2022-10-17T11:01:03;19.20;57.80
38333;DHT22;25748;46.670;14.272;2022-10-17T11:03:40;19.30;57.80
38333;DHT22;25748;46.670;14.272;2022-10-17T11:06:18;19.50;57.50
38333;DHT22;25748;46.670;14.272;2022-10-17T11:11:48;19.60;57.20
38333;DHT22;25748;46.670;14.272;2022-10-17T11:19:44;19.70;56.60
38333;DHT22;25748;46.670;14.272;2022-10-17T11:22:25;19.80;56.40
38333;DHT22;25748;46.670;14.272;2022-10-17T11:24:58;19.90;56.40
38333;DHT22;25748;46.670;14.272;2022-10-17T11:27:27;20.00;55.20
38333;DHT22;25748;46.670;14.272;2022-10-17T11:29:54;20.20;55.20
38333;DHT22;25748;46.670;14.272;2022-10-17T11:32:36;20.20;54.90
38333;DHT22;25748;46.670;14.272;2022-10-17T11:37:48;20.40;54.30
38333;DHT22;25748;46.670;14.272;2022-10-17T11:40:24;20.50;54.30
38333;DHT22;25748;46.670;14.272;2022-10-17T11:43:04;20.40;53.50
38333;DHT22;25748;46.670;14.272;2022-10-17T11:45:35;20.50;53.70
38333;DHT22;25748;46.670;14.272;2022-10-17T11:48:12;20.30;53.30
38333;DHT22;25748;46.670;14.272;2022-10-17T11:50:46;20.40;53.10
38333;DHT22;25748;46.670;14.272;2022-10-17T11:53:17;20.50;53.80
38333;DHT22;25748;46.670;14.272;2022-10-17T11:55:45;20.50;53.30
38333;DHT22;25748;46.670;14.272;2022-10-17T11:58:37;20.40;53.40
38333;DHT22;25748;46.670;14.272;2022-10-17T12:10:02;20.90;52.40
38333;DHT22;25748;46.670;14.272;2022-10-17T12:12:32;20.90;51.80
38333;DHT22;25748;46.670;14.272;2022-10-17T12:17:57;21.10;52.10
38333;DHT22;25748;46.670;14.272;2022-10-17T12:25:33;21.30;51.20
38333;DHT22;25748;46.670;14.272;2022-10-17T12:30:31;21.50;50.70
38333;DHT22;25748;46.670;14.272;2022-10-17T12:33:26;21.20;50.00
38333;DHT22;25748;46.670;14.272;2022-10-17T12:38:48;21.40;50.80
38333;DHT22;25748;46.670;14.272;2022-10-17T12:41:14;21.50;50.50
38333;DHT22;25748;46.670;14.272;2022-10-17T12:43:53;21.60;50.40
38333;DHT22;25748;46.670;14.272;2022-10-17T12:46:44;21.50;49.00
38333;DHT22;25748;46.670;14.272;2022-10-17T12:49:45;21.70;49.90
38333;DHT22;25748;46.670;14.272;2022-10-17T12:52:21;21.70;49.50
38333;DHT22;25748;46.670;14.272;2022-10-17T12:59:54;22.00;49.50
38333;DHT22;25748;46.670;14.272;2022-10-17T13:02:22;22.20;49.50
38333;DHT22;25748;46.670;14.272;2022-10-17T13:04:49;22.30;48.80
38333;DHT22;25748;46.670;14.272;2022-10-17T13:07:20;22.50;48.60
38333;DHT22;25748;46.670;14.272;2022-10-17T13:09:47;22.70;48.20
38333;DHT22;25748;46.670;14.272;2022-10-17T13:12:18;22.80;47.60
38333;DHT22;25748;46.670;14.272;2022-10-17T13:14:45;22.90;48.00
38333;DHT22;25748;46.670;14.272;2022-10-17T13:17:27;23.00;48.10
38333;DHT22;25748;46.670;14.272;2022-10-17T13:19:54;23.10;47.30
38333;DHT22;25748;46.670;14.272;2022-10-17T13:22:23;23.00;47.70
38333;DHT22;25748;46.670;14.272;2022-10-17T13:24:51;23.10;47.50
38333;DHT22;25748;46.670;14.272;2022-10-17T13:27:29;23.20;47.40
38333;DHT22;25748;46.670;14.272;2022-10-17T13:29:56;23.20;47.20
38333;DHT22;25748;46.670;14.272;2022-10-17T13:32:24;23.30;47.30
38333;DHT22;25748;46.670;14.272;2022-10-17T13:35:11;23.50;47.10
38333;DHT22;25748;46.670;14.272;2022-10-17T13:37:40;23.50;46.80
38333;DHT22;25748;46.670;14.272;2022-10-17T13:40:10;23.60;47.20
38333;DHT22;25748;46.670;14.272;2022-10-17T13:42:39;23.60;46.80
38333;DHT22;25748;46.670;14.272;2022-10-17T13:47:48;23.60;46.70
38333;DHT22;25748;46.670;14.272;2022-10-17T13:50:29;23.60;46.60
38333;DHT22;25748;46.670;14.272;2022-10-17T13:53:13;23.60;46.70
38333;DHT22;25748;46.670;14.272;2022-10-17T13:58:22;23.30;46.70
38333;DHT22;25748;46.670;14.272;2022-10-17T14:00:48;23.40;46.60
38333;DHT22;25748;46.670;14.272;2022-10-17T14:03:21;23.10;46.40
38333;DHT22;25748;46.670;14.272;2022-10-17T14:11:38;22.80;46.90
38333;DHT22;25748;46.670;14.272;2022-10-17T14:14:18;22.60;46.80
38333;DHT22;25748;46.670;14.272;2022-10-17T14:16:45;22.70;47.10
38333;DHT22;25748;46.670;14.272;2022-10-17T14:19:32;22.60;46.90
38333;DHT22;25748;46.670;14.272;2022-10-17T14:24:48;22.60;47.00
38333;DHT22;25748;46.670;14.272;2022-10-17T14:27:27;22.60;47.00
38333;DHT22;25748;46.670;14.272;2022-10-17T14:29:55;22.70;47.00
38333;DHT22;25748;46.670;14.272;2022-10-17T14:32:26;22.70;47.30
38333;DHT22;25748;46.670;14.272;2022-10-17T14:34:54;22.70;47.00
38333;DHT22;25748;46.670;14.272;2022-10-17T14:39:53;22.60;47.00
38333;DHT22;25748;46.670;14.272;2022-10-17T14:42:22;22.60;47.10
38333;DHT22;25748;46.670;14.272;2022-10-17T14:44:52;22.60;47.00
38333;DHT22;25748;46.670;14.272;2022-10-17T14:47:26;22.70;47.30
38333;DHT22;25748;46.670;14.272;2022-10-17T14:50:24;22.60;47.40
38333;DHT22;25748;46.670;14.272;2022-10-17T14:53:19;22.60;47.00
38333;DHT22;25748;46.670;14.272;2022-10-17T14:56:00;22.60;47.20
38333;DHT22;25748;46.670;14.272;2022-10-17T14:58:31;22.60;47.10
38333;DHT22;25748;46.670;14.272;2022-10-17T15:00:58;22.60;47.10
38333;DHT22;25748;46.670;14.272;2022-10-17T15:03:24;22.60;47.10
38333;DHT22;25748;46.670;14.272;2022-10-17T15:05:51;22.50;47.00
38333;DHT22;25748;46.670;14.272;2022-10-17T15:08:19;22.50;47.10
38333;DHT22;25748;46.670;14.272;2022-10-17T15:10:45;22.40;47.20
38333;DHT22;25748;46.670;14.272;2022-10-17T15:13:12;22.40;47.20
38333;DHT22;25748;46.670;14.272;2022-10-17T15:15:39;22.30;47.10
38333;DHT22;25748;46.670;14.272;2022-10-17T15:18:06;22.20;47.40
38333;DHT22;25748;46.670;14.272;2022-10-17T15:20:33;22.10;47.60
38333;DHT22;25748;46.670;14.272;2022-10-17T15:23:00;22.10;47.60
38333;DHT22;25748;46.670;14.272;2022-10-17T15:25:27;22.00;47.90
38333;DHT22;25748;46.670;14.272;2022-10-17T15:27:53;21.90;48.70
38333;DHT22;25748;46.670;14.272;2022-10-17T15:30:27;21.80;49.00
38333;DHT22;25748;46.670;14.272;2022-10-17T15:32:54;21.60;49.30
38333;DHT22;25748;46.670;14.272;2022-10-17T15:35:21;21.50;49.50
38333;DHT22;25748;46.670;14.272;2022-10-17T15:37:47;21.30;49.70
38333;DHT22;25748;46.670;14.272;2022-10-17T15:40:16;21.20;49.90
38333;DHT22;25748;46.670;14.272;2022-10-17T15:42:43;21.00;50.20
38333;DHT22;25748;46.670;14.272;2022-10-17T15:45:14;20.80;50.40
38333;DHT22;25748;46.670;14.272;2022-10-17T15:47:41;20.60;50.90
38333;DHT22;25748;46.670;14.272;2022-10-17T15:50:13;20.40;51.10
38333;DHT22;25748;46.670;14.272;2022-10-17T15:52:39;20.10;51.40
38333;DHT22;25748;46.670;14.272;2022-10-17T15:55:07;19.90;51.60
38333;DHT22;25748;46.670;14.272;2022-10-17T15:57:36;19.70;51.90
38333;DHT22;25748;46.670;14.272;2022-10-17T16:00:04;19.50;52.20
38333;DHT22;25748;46.670;14.272;2022-10-17T16:02:30;19.40;52.50
38333;DHT22;25748;46.670;14.272;2022-10-17T16:04:58;19.10;52.70
38333;DHT22;25748;46.670;14.272;2022-10-17T16:07:24;19.00;53.30
38333;DHT22;25748;46.670;14.272;2022-10-17T16:09:49;18.70;53.60
38333;DHT22;25748;46.670;14.272;2022-10-17T16:12:18;18.60;53.90
38333;DHT22;25748;46.670;14.272;2022-10-17T16:14:45;18.40;54.40
38333;DHT22;25748;46.670;14.272;2022-10-17T16:17:14;18.20;54.50
38333;DHT22;25748;46.670;14.272;2022-10-17T16:19:41;18.00;54.80
38333;DHT22;25748;46.670;14.272;2022-10-17T16:22:26;17.90;54.60
38333;DHT22;25748;46.670;14.272;2022-10-17T16:24:52;17.70;54.50
38333;DHT22;25748;46.670;14.272;2022-10-17T16:27:23;17.50;54.40
38333;DHT22;25748;46.670;14.272;2022-10-17T16:29:48;17.40;54.60
38333;DHT22;25748;46.670;14.272;2022-10-17T16:32:14;17.30;54.70
38333;DHT22;25748;46.670;14.272;2022-10-17T16:34:40;17.10;54.90
38333;DHT22;25748;46.670;14.272;2022-10-17T16:37:05;17.00;55.10
38333;DHT22;25748;46.670;14.272;2022-10-17T16:39:31;16.80;55.40
38333;DHT22;25748;46.670;14.272;2022-10-17T16:41:57;16.70;55.50
38333;DHT22;25748;46.670;14.272;2022-10-17T16:44:22;16.50;55.60
38333;DHT22;25748;46.670;14.272;2022-10-17T16:46:48;16.40;56.00
38333;DHT22;25748;46.670;14.272;2022-10-17T16:49:13;16.20;56.60
38333;DHT22;25748;46.670;14.272;2022-10-17T16:51:41;16.10;56.40
38333;DHT22;25748;46.670;14.272;2022-10-17T16:54:07;15.90;56.60
38333;DHT22;25748;46.670;14.272;2022-10-17T16:56:33;15.90;56.60
38333;DHT22;25748;46.670;14.272;2022-10-17T16:59:00;15.70;56.70
38333;DHT22;25748;46.670;14.272;2022-10-17T17:01:26;15.60;56.90
38333;DHT22;25748;46.670;14.272;2022-10-17T17:03:54;15.40;56.90
38333;DHT22;25748;46.670;14.272;2022-10-17T17:06:23;15.30;57.60
38333;DHT22;25748;46.670;14.272;2022-10-17T17:08:50;15.20;57.90
38333;DHT22;25748;46.670;14.272;2022-10-17T17:11:18;15.10;58.00
38333;DHT22;25748;46.670;14.272;2022-10-17T17:13:44;15.00;58.20
38333;DHT22;25748;46.670;14.272;2022-10-17T17:16:13;14.90;58.30
38333;DHT22;25748;46.670;14.272;2022-10-17T17:18:40;14.80;58.70
38333;DHT22;25748;46.670;14.272;2022-10-17T17:21:08;14.70;59.10
38333;DHT22;25748;46.670;14.272;2022-10-17T17:23:37;14.60;59.20
38333;DHT22;25748;46.670;14.272;2022-10-17T17:26:09;14.50;59.10
38333;DHT22;25748;46.670;14.272;2022-10-17T17:28:35;14.40;59.30
38333;DHT22;25748;46.670;14.272;2022-10-17T17:31:01;14.30;59.60
38333;DHT22;25748;46.670;14.272;2022-10-17T17:33:27;14.30;59.80
38333;DHT22;25748;46.670;14.272;2022-10-17T17:35:58;14.10;60.00
38333;DHT22;25748;46.670;14.272;2022-10-17T17:38:27;14.10;60.30